sensor_id;sensor_type;location;lat;lon;timestamp;P1;durP1;ratioP1;P2;durP2;ratioP2
65049;SDS011;52090;51.224;-2.328;2022-12-10T12:11:54;7.72;;;6.68;;
65049;SDS011;52090;51.224;-2.328;2022-12-10T12:19:49;6.88;;;5.80;;
65049;SDS011;52090;51.224;-2.328;2022-12-10T12:23:52;5.55;;;4.10;;
65049;SDS011;52090;51.224;-2.328;2022-12-10T12:27:46;10.13;;;7.53;;
65049;SDS011;52090;51.224;-2.328;2022-12-10T12:31:35;10.80;;;7.95;;
65049;SDS011;52090;51.224;-2.328;2022-12-10T12:35:21;12.57;;;6.93;;
65049;SDS011;52090;51.224;-2.328;2022-12-10T12:43:20;14.93;;;10.45;;
65049;SDS011;52090;51.224;-2.328;2022-12-10T12:47:51;10.52;;;6.85;;
65049;SDS011;52090;51.224;-2.328;2022-12-10T12:51:43;10.67;;;6.60;;
65049;SDS011;52090;51.224;-2.328;2022-12-10T12:55:38;9.68;;;8.35;;
65049;SDS011;52090;51.224;-2.328;2022-12-10T13:03:46;8.82;;;5.93;;
65049;SDS011;52090;51.224;-2.328;2022-12-10T13:07:31;5.78;;;4.55;;
65049;SDS011;52090;51.224;-2.328;2022-12-10T13:11:17;5.45;;;4.80;;
65049;SDS011;52090;51.224;-2.328;2022-12-10T13:15:32;5.30;;;4.57;;
65049;SDS011;52090;51.224;-2.328;2022-12-10T13:23:04;6.70;;;5.28;;
65049;SDS011;52090;51.224;-2.328;2022-12-10T13:27:14;6.03;;;4.80;;
65049;SDS011;52090;51.224;-2.328;2022-12-10T13:39:21;9.93;;;8.02;;
65049;SDS011;52090;51.224;-2.328;2022-12-10T13:51:36;11.68;;;8.85;;
65049;SDS011;52090;51.224;-2.328;2022-12-10T13:59:23;11.10;;;8.77;;
65049;SDS011;52090;51.224;-2.328;2022-12-10T14:03:26;13.77;;;10.13;;
65049;SDS011;52090;51.224;-2.328;2022-12-10T14:07:12;23.25;;;14.70;;
65049;SDS011;52090;51.224;-2.328;2022-12-10T14:10:57;12.23;;;10.45;;
65049;SDS011;52090;51.224;-2.328;2022-12-10T14:14:41;11.05;;;6.75;;
65049;SDS011;52090;51.224;-2.328;2022-12-10T14:18:27;10.05;;;8.18;;
65049;SDS011;52090;51.224;-2.328;2022-12-10T14:22:14;7.90;;;7.05;;
65049;SDS011;52090;51.224;-2.328;2022-12-10T14:26:54;13.45;;;9.57;;
65049;SDS011;52090;51.224;-2.328;2022-12-10T14:30:24;13.85;;;9.18;;
65049;SDS011;52090;51.224;-2.328;2022-12-10T14:34:11;21.52;;;15.40;;
65049;SDS011;52090;51.224;-2.328;2022-12-10T14:37:59;10.00;;;8.45;;
65049;SDS011;52090;51.224;-2.328;2022-12-10T14:41:43;7.68;;;6.80;;
65049;SDS011;52090;51.224;-2.328;2022-12-10T14:45:25;23.80;;;15.53;;
65049;SDS011;52090;51.224;-2.328;2022-12-10T14:49:16;14.88;;;11.13;;
65049;SDS011;52090;51.224;-2.328;2022-12-10T14:53:01;11.52;;;9.48;;
65049;SDS011;52090;51.224;-2.328;2022-12-10T14:56:42;10.52;;;8.27;;
65049;SDS011;52090;51.224;-2.328;2022-12-10T15:00:24;13.95;;;9.90;;
65049;SDS011;52090;51.224;-2.328;2022-12-10T15:04:11;12.73;;;10.15;;
65049;SDS011;52090;51.224;-2.328;2022-12-10T15:08:16;9.70;;;8.13;;
65049;SDS011;52090;51.224;-2.328;2022-12-10T15:11:59;12.25;;;8.73;;
65049;SDS011;52090;51.224;-2.328;2022-12-10T15:15:41;11.98;;;9.68;;
65049;SDS011;52090;51.224;-2.328;2022-12-10T15:19:24;16.30;;;12.82;;
65049;SDS011;52090;51.224;-2.328;2022-12-10T15:23:30;18.05;;;14.85;;
65049;SDS011;52090;51.224;-2.328;2022-12-10T15:27:21;29.40;;;18.15;;
65049;SDS011;52090;51.224;-2.328;2022-12-10T15:35:12;11.70;;;9.77;;
65049;SDS011;52090;51.224;-2.328;2022-12-10T15:47:12;23.65;;;21.23;;
65049;SDS011;52090;51.224;-2.328;2022-12-10T15:51:07;18.77;;;16.23;;
65049;SDS011;52090;51.224;-2.328;2022-12-10T15:54:50;21.40;;;18.25;;
65049;SDS011;52090;51.224;-2.328;2022-12-10T15:58:34;26.40;;;19.75;;
65049;SDS011;52090;51.224;-2.328;2022-12-10T16:06:16;21.27;;;16.50;;
65049;SDS011;52090;51.224;-2.328;2022-12-10T16:10:00;19.67;;;17.15;;
65049;SDS011;52090;51.224;-2.328;2022-12-10T16:13:43;29.00;;;22.30;;
65049;SDS011;52090;51.224;-2.328;2022-12-10T16:17:30;23.08;;;18.75;;
65049;SDS011;52090;51.224;-2.328;2022-12-10T16:21:12;31.52;;;28.35;;
65049;SDS011;52090;51.224;-2.328;2022-12-10T16:24:54;21.83;;;19.58;;
65049;SDS011;52090;51.224;-2.328;2022-12-10T16:28:35;20.38;;;17.30;;
65049;SDS011;52090;51.224;-2.328;2022-12-10T16:32:17;27.70;;;20.80;;
65049;SDS011;52090;51.224;-2.328;2022-12-10T16:35:59;36.95;;;25.80;;
65049;SDS011;52090;51.224;-2.328;2022-12-10T16:39:43;34.58;;;24.30;;
65049;SDS011;52090;51.224;-2.328;2022-12-10T16:43:32;31.13;;;22.75;;
65049;SDS011;52090;51.224;-2.328;2022-12-10T16:47:14;33.47;;;23.73;;
65049;SDS011;52090;51.224;-2.328;2022-12-10T16:50:57;35.00;;;24.33;;
65049;SDS011;52090;51.224;-2.328;2022-12-10T16:54:48;24.67;;;18.77;;
65049;SDS011;52090;51.224;-2.328;2022-12-10T16:58:30;30.80;;;22.50;;
65049;SDS011;52090;51.224;-2.328;2022-12-10T17:02:15;51.67;;;35.67;;
65049;SDS011;52090;51.224;-2.328;2022-12-10T17:05:59;57.63;;;38.53;;
65049;SDS011;52090;51.224;-2.328;2022-12-10T17:09:43;44.97;;;32.38;;
65049;SDS011;52090;51.224;-2.328;2022-12-10T17:13:25;46.55;;;32.08;;
65049;SDS011;52090;51.224;-2.328;2022-12-10T17:17:08;54.95;;;31.67;;
65049;SDS011;52090;51.224;-2.328;2022-12-10T17:20:50;34.78;;;21.60;;
65049;SDS011;52090;51.224;-2.328;2022-12-10T17:24:32;39.08;;;27.38;;
65049;SDS011;52090;51.224;-2.328;2022-12-10T17:28:16;30.43;;;20.33;;
65049;SDS011;52090;51.224;-2.328;2022-12-10T17:31:59;42.95;;;28.25;;
65049;SDS011;52090;51.224;-2.328;2022-12-10T17:35:42;41.95;;;28.83;;
65049;SDS011;52090;51.224;-2.328;2022-12-10T17:39:25;36.63;;;26.60;;
65049;SDS011;52090;51.224;-2.328;2022-12-10T17:43:09;27.98;;;22.73;;
65049;SDS011;52090;51.224;-2.328;2022-12-10T17:46:52;42.30;;;25.17;;
65049;SDS011;52090;51.224;-2.328;2022-12-10T17:50:35;37.03;;;26.83;;
65049;SDS011;52090;51.224;-2.328;2022-12-10T17:54:18;35.42;;;25.23;;
65049;SDS011;52090;51.224;-2.328;2022-12-10T17:57:59;40.33;;;26.33;;
65049;SDS011;52090;51.224;-2.328;2022-12-10T18:01:41;24.92;;;19.33;;
65049;SDS011;52090;51.224;-2.328;2022-12-10T18:05:29;27.58;;;20.20;;
65049;SDS011;52090;51.224;-2.328;2022-12-10T18:09:11;40.95;;;27.73;;
65049;SDS011;52090;51.224;-2.328;2022-12-10T18:12:53;33.58;;;25.02;;
65049;SDS011;52090;51.224;-2.328;2022-12-10T18:16:35;29.67;;;21.70;;
65049;SDS011;52090;51.224;-2.328;2022-12-10T18:24:11;29.83;;;22.05;;
65049;SDS011;52090;51.224;-2.328;2022-12-10T18:27:54;32.53;;;24.42;;
65049;SDS011;52090;51.224;-2.328;2022-12-10T18:31:38;33.67;;;25.95;;
65049;SDS011;52090;51.224;-2.328;2022-12-10T18:35:20;41.92;;;31.20;;
65049;SDS011;52090;51.224;-2.328;2022-12-10T18:39:05;36.20;;;24.23;;
65049;SDS011;52090;51.224;-2.328;2022-12-10T18:43:07;35.00;;;26.15;;
65049;SDS011;52090;51.224;-2.328;2022-12-10T18:46:53;37.33;;;27.65;;
65049;SDS011;52090;51.224;-2.328;2022-12-10T18:50:36;37.75;;;26.88;;
65049;SDS011;52090;51.224;-2.328;2022-12-10T18:54:18;32.88;;;23.83;;
65049;SDS011;52090;51.224;-2.328;2022-12-10T18:58:00;32.80;;;25.60;;
65049;SDS011;52090;51.224;-2.328;2022-12-10T19:01:47;47.53;;;37.20;;
65049;SDS011;52090;51.224;-2.328;2022-12-10T19:05:29;42.38;;;34.28;;
65049;SDS011;52090;51.224;-2.328;2022-12-10T19:09:15;61.20;;;43.95;;
65049;SDS011;52090;51.224;-2.328;2022-12-10T19:12:59;50.45;;;35.15;;
65049;SDS011;52090;51.224;-2.328;2022-12-10T19:16:41;48.42;;;30.25;;
65049;SDS011;52090;51.224;-2.328;2022-12-10T19:20:24;41.70;;;30.10;;
65049;SDS011;52090;51.224;-2.328;2022-12-10T19:24:06;44.03;;;32.38;;
65049;SDS011;52090;51.224;-2.328;2022-12-10T19:31:31;46.45;;;33.42;;
65049;SDS011;52090;51.224;-2.328;2022-12-10T19:35:18;47.45;;;30.48;;
65049;SDS011;52090;51.224;-2.328;2022-12-10T19:39:02;43.80;;;32.03;;
65049;SDS011;52090;51.224;-2.328;2022-12-10T19:42:44;42.73;;;30.83;;
65049;SDS011;52090;51.224;-2.328;2022-12-10T19:46:26;41.97;;;30.58;;
65049;SDS011;52090;51.224;-2.328;2022-12-10T19:50:13;58.67;;;36.13;;
65049;SDS011;52090;51.224;-2.328;2022-12-10T19:53:59;49.20;;;32.58;;
65049;SDS011;52090;51.224;-2.328;2022-12-10T19:57:41;40.67;;;28.35;;
65049;SDS011;52090;51.224;-2.328;2022-12-10T20:01:24;41.45;;;30.60;;
65049;SDS011;52090;51.224;-2.328;2022-12-10T20:05:07;48.80;;;34.92;;
65049;SDS011;52090;51.224;-2.328;2022-12-10T20:08:57;44.80;;;29.63;;
65049;SDS011;52090;51.224;-2.328;2022-12-10T20:12:41;44.40;;;30.77;;
65049;SDS011;52090;51.224;-2.328;2022-12-10T20:16:27;46.75;;;30.83;;
65049;SDS011;52090;51.224;-2.328;2022-12-10T20:20:16;49.53;;;30.88;;
65049;SDS011;52090;51.224;-2.328;2022-12-10T20:24:03;44.47;;;29.50;;
65049;SDS011;52090;51.224;-2.328;2022-12-10T20:27:45;45.80;;;29.48;;
65049;SDS011;52090;51.224;-2.328;2022-12-10T20:31:27;48.78;;;29.48;;
65049;SDS011;52090;51.224;-2.328;2022-12-10T20:35:12;42.67;;;28.13;;
65049;SDS011;52090;51.224;-2.328;2022-12-10T20:38:54;39.03;;;29.25;;
65049;SDS011;52090;51.224;-2.328;2022-12-10T20:42:36;36.92;;;26.20;;
65049;SDS011;52090;51.224;-2.328;2022-12-10T20:46:18;38.22;;;28.83;;
65049;SDS011;52090;51.224;-2.328;2022-12-10T20:50:03;41.78;;;28.05;;
65049;SDS011;52090;51.224;-2.328;2022-12-10T20:53:49;32.15;;;22.52;;
65049;SDS011;52090;51.224;-2.328;2022-12-10T20:57:30;33.22;;;24.40;;
65049;SDS011;52090;51.224;-2.328;2022-12-10T21:01:12;30.85;;;24.02;;
65049;SDS011;52090;51.224;-2.328;2022-12-10T21:04:54;32.53;;;23.63;;
65049;SDS011;52090;51.224;-2.328;2022-12-10T21:08:36;38.50;;;27.15;;
65049;SDS011;52090;51.224;-2.328;2022-12-10T21:12:18;38.33;;;26.05;;
65049;SDS011;52090;51.224;-2.328;2022-12-10T21:16:00;40.03;;;25.77;;
65049;SDS011;52090;51.224;-2.328;2022-12-10T21:19:43;31.40;;;20.38;;
65049;SDS011;52090;51.224;-2.328;2022-12-10T21:23:26;29.73;;;20.85;;
65049;SDS011;52090;51.224;-2.328;2022-12-10T21:27:09;38.80;;;25.48;;
65049;SDS011;52090;51.224;-2.328;2022-12-10T21:34:34;37.92;;;22.58;;
65049;SDS011;52090;51.224;-2.328;2022-12-10T21:38:16;37.95;;;22.90;;
65049;SDS011;52090;51.224;-2.328;2022-12-10T21:41:58;48.50;;;26.60;;
65049;SDS011;52090;51.224;-2.328;2022-12-10T21:46:05;35.67;;;24.17;;
65049;SDS011;52090;51.224;-2.328;2022-12-10T21:49:49;27.25;;;17.67;;
65049;SDS011;52090;51.224;-2.328;2022-12-10T21:53:31;27.35;;;19.27;;
65049;SDS011;52090;51.224;-2.328;2022-12-10T21:57:13;47.28;;;24.63;;
65049;SDS011;52090;51.224;-2.328;2022-12-10T22:00:55;37.28;;;22.50;;
65049;SDS011;52090;51.224;-2.328;2022-12-10T22:04:38;26.07;;;18.43;;
65049;SDS011;52090;51.224;-2.328;2022-12-10T22:08:20;22.87;;;15.30;;
65049;SDS011;52090;51.224;-2.328;2022-12-10T22:12:02;30.90;;;18.02;;
65049;SDS011;52090;51.224;-2.328;2022-12-10T22:15:44;33.85;;;17.95;;
65049;SDS011;52090;51.224;-2.328;2022-12-10T22:19:27;30.13;;;19.42;;
65049;SDS011;52090;51.224;-2.328;2022-12-10T22:23:12;23.85;;;15.40;;
65049;SDS011;52090;51.224;-2.328;2022-12-10T22:26:55;22.10;;;14.00;;
65049;SDS011;52090;51.224;-2.328;2022-12-10T22:30:38;23.40;;;15.70;;
65049;SDS011;52090;51.224;-2.328;2022-12-10T22:34:20;22.75;;;15.00;;
65049;SDS011;52090;51.224;-2.328;2022-12-10T22:38:03;24.27;;;17.77;;
65049;SDS011;52090;51.224;-2.328;2022-12-10T22:41:46;23.98;;;15.57;;
65049;SDS011;52090;51.224;-2.328;2022-12-10T22:45:28;21.92;;;15.02;;
65049;SDS011;52090;51.224;-2.328;2022-12-10T22:49:11;27.23;;;16.40;;
65049;SDS011;52090;51.224;-2.328;2022-12-10T22:52:54;24.33;;;16.00;;
65049;SDS011;52090;51.224;-2.328;2022-12-10T22:56:36;41.85;;;27.63;;
65049;SDS011;52090;51.224;-2.328;2022-12-10T23:00:19;34.88;;;20.73;;
65049;SDS011;52090;51.224;-2.328;2022-12-10T23:04:01;45.85;;;27.55;;
65049;SDS011;52090;51.224;-2.328;2022-12-10T23:07:43;54.20;;;31.88;;
65049;SDS011;52090;51.224;-2.328;2022-12-10T23:11:26;52.30;;;30.70;;
65049;SDS011;52090;51.224;-2.328;2022-12-10T23:15:08;55.08;;;32.22;;
65049;SDS011;52090;51.224;-2.328;2022-12-10T23:18:50;49.13;;;29.95;;
65049;SDS011;52090;51.224;-2.328;2022-12-10T23:22:32;28.38;;;17.35;;
65049;SDS011;52090;51.224;-2.328;2022-12-10T23:26:14;25.67;;;16.77;;
65049;SDS011;52090;51.224;-2.328;2022-12-10T23:29:57;26.00;;;16.15;;
65049;SDS011;52090;51.224;-2.328;2022-12-10T23:33:38;30.20;;;20.50;;
65049;SDS011;52090;51.224;-2.328;2022-12-10T23:37:20;23.48;;;15.38;;
65049;SDS011;52090;51.224;-2.328;2022-12-10T23:41:05;24.90;;;17.02;;
65049;SDS011;52090;51.224;-2.328;2022-12-10T23:44:48;22.02;;;13.98;;
65049;SDS011;52090;51.224;-2.328;2022-12-10T23:48:30;23.00;;;14.68;;
65049;SDS011;52090;51.224;-2.328;2022-12-10T23:52:12;26.38;;;16.20;;
65049;SDS011;52090;51.224;-2.328;2022-12-10T23:55:54;27.77;;;18.63;;
65049;SDS011;52090;51.224;-2.328;2022-12-10T23:59:36;25.75;;;15.82;;
